首页
METAR-TAF:

METAR-TAF

机场 :

阿卡普尔科, 墨西哥

纬度: 16-46N, 经度: 099-45W, 海拔: 5米

当前天气观测

该预报发布于1小时和11分钟前的18:43 UTC
风速5节,风向东南
温度 32°C
湿度 63%
气压 1011 hPa
能見度: 11.3公里
散云层高于30000英尺

METAR: MMAA 201843Z 14005KT 7SM SCT300 32/24 A2986 RMK 8/002 HZY

时间: 14:54 (19:54 UTC)

预报

该预报发布于3小时和15分钟前的16:39 UTC
预报有效从20日的 18点(UTC)到 21日的 24点(UTC)
风速8节,风向南转南东
能見度: 10公里
散云层高于2000英尺
散云层高于28000英尺
成为
从 20日的 20点(UTC)到 20日的 21点(UTC)
多云层高于2000英尺
多云层高于28000英尺
短暂存在
从 20日的 23点(UTC)到 21日的 03点(UTC)
能見度: 8.0公里
多云层高于2000英尺, 积雨云.
雷暴, 雨
从 21日的 0900点(UTC)
风速5节,风向
能見度: 10公里
散云层高于1200英尺
多云层高于12000英尺
多云层高于25000英尺
从 21日的 1700点(UTC)
风速8节,风向西转西南
能見度: 10公里
散云层高于2000英尺
散云层高于12000英尺
成为
从 21日的 22点(UTC)到 21日的 23点(UTC)
能見度: 10公里
多云层高于2000英尺, 积雨云.

TAF: MMAA 201639Z 2018/2124 16008KT P6SM SCT020 SCT280 TX31/2018Z TN25/2112Z BECMG 2020/2021 BKN020 BKN280 TEMPO 2023/2103 5SM TSRA BKN020CB FM210900 35005KT P6SM SCT012 BKN120 BKN250 FM211700 25008KT P6SM SCT020 SCT120 BECMG 2122/2123 P6SM BKN020CB

超过4000个机场的气象观测和天气预报(METAR&TAF报告)。

可查询的气象台以黄色和红色小点在地图上表示。

将鼠标移到小点上方,可查看气象台名称。

然后点击查看天气观测和预报。

如需切换地图:点击带黑十字的绿色按钮放大地图;点击带横线的绿色按钮缩小地图;或者点击绿色箭头查看邻近地区的地图。


METAR-TAF: